Time,TemperatureF,DewpointF,PressureIn,WindDirection,WindDirectionDegrees,WindSpeedMPH,WindSpeedGustMPH,Humidity,HourlyPrecipIn,Conditions,Clouds,dailyrainin,SoftwareType,DateUTC
2013-05-21 00:00:00,76.2,65.3,29.72,SSE,159,3.0,3.0,69,0.00,,,0.00,Wunderground v.1.15,2013-05-21 04:00:00,
2013-05-21 00:01:00,76.2,65.3,29.72,SSE,159,3.0,3.0,69,0.00,,,0.00,Wunderground v.1.15,2013-05-21 04:01:00,
2013-05-21 00:02:00,76.1,65.2,29.72,SSE,166,3.0,3.0,69,0.00,,,0.00,Wunderground v.1.15,2013-05-21 04:02:00,
2013-05-21 00:03:00,76.1,65.2,29.72,South,178,2.0,4.0,69,0.00,,,0.00,Wunderground v.1.15,2013-05-21 04:03:00,
2013-05-21 00:04:00,76.0,65.1,29.72,South,186,2.0,4.0,69,0.00,,,0.00,Wunderground v.1.15,2013-05-21 04:04:00,
2013-05-21 00:09:00,75.9,65.0,29.72,SSE,153,3.0,5.0,69,0.00,,,0.00,Wunderground v.1.15,2013-05-21 04:09:00,
2013-05-21 00:14:00,75.9,65.0,29.71,SSE,166,3.0,3.0,69,0.00,,,0.00,Wunderground v.1.15,2013-05-21 04:14:00,
2013-05-21 00:16:00,75.8,64.9,29.71,South,169,2.0,4.0,69,0.00,,,0.00,Wunderground v.1.15,2013-05-21 04:16:00,
2013-05-21 00:21:00,75.7,64.8,29.71,SSE,148,2.0,2.0,69,0.00,,,0.00,Wunderground v.1.15,2013-05-21 04:21:00,
2013-05-21 00:27:00,75.5,65.0,29.71,South,175,2.0,4.0,70,0.00,,,0.00,Wunderground v.1.15,2013-05-21 04:27:00,
2013-05-21 00:32:00,75.4,64.9,29.71,South,175,2.0,10.0,70,0.00,,,0.00,Wunderground v.1.15,2013-05-21 04:32:00,
2013-05-21 00:38:00,75.3,64.8,29.71,SSE,163,2.0,10.0,70,0.00,,,0.00,Wunderground v.1.15,2013-05-21 04:38:00,
2013-05-21 00:43:00,75.2,65.1,29.71,SE,137,1.0,10.0,71,0.00,,,0.00,Wunderground v.1.15,2013-05-21 04:43:00,
2013-05-21 00:48:00,75.0,65.0,29.71,SE,136,1.0,10.0,71,0.00,,,0.00,Wunderground v.1.15,2013-05-21 04:48:00,
2013-05-21 00:54:00,74.8,64.8,29.71,ESE,117,1.0,10.0,71,0.00,,,0.00,Wunderground v.1.15,2013-05-21 04:54:00,
2013-05-21 00:59:00,74.6,65.0,29.71,SSE,152,2.0,10.0,72,0.00,,,0.00,Wunderground v.1.15,2013-05-21 04:59:00,
2013-05-21 01:05:00,74.4,65.2,29.71,SE,146,1.0,2.0,73,0.00,,,0.00,Wunderground v.1.15,2013-05-21 05:05:00,
2013-05-21 01:10:00,74.0,64.8,29.72,SE,146,1.0,1.0,73,0.00,,,0.00,Wunderground v.1.15,2013-05-21 05:10:00,
2013-05-21 01:16:00,74.0,64.8,29.72,SSE,163,2.0,3.0,73,0.00,,,0.00,Wunderground v.1.15,2013-05-21 05:16:00,
2013-05-21 01:22:00,74.3,65.1,29.72,SSE,149,3.0,3.0,73,0.00,,,0.00,Wunderground v.1.15,2013-05-21 05:22:00,
2013-05-21 01:27:00,74.3,65.1,29.72,SSE,151,3.0,3.0,73,0.00,,,0.00,Wunderground v.1.15,2013-05-21 05:27:00,
2013-05-21 01:33:00,74.3,65.1,29.71,SSE,158,3.0,7.0,73,0.00,,,0.00,Wunderground v.1.15,2013-05-21 05:33:00,
2013-05-21 01:39:00,74.3,65.1,29.71,SE,142,3.0,7.0,73,0.00,,,0.00,Wunderground v.1.15,2013-05-21 05:39:00,
2013-05-21 01:44:00,74.3,65.1,29.71,SE,144,4.0,7.0,73,0.00,,,0.00,Wunderground v.1.15,2013-05-21 05:44:00,
2013-05-21 01:49:00,74.3,65.5,29.71,SE,128,4.0,7.0,74,0.00,,,0.00,Wunderground v.1.15,2013-05-21 05:49:00,
2013-05-21 01:55:00,74.2,65.4,29.71,SE,144,4.0,7.0,74,0.00,,,0.00,Wunderground v.1.15,2013-05-21 05:55:00,
2013-05-21 02:00:00,74.2,65.4,29.70,SSE,150,4.0,10.0,74,0.00,,,0.00,Wunderground v.1.15,2013-05-21 06:00:00,
2013-05-21 02:06:00,74.3,65.5,29.70,South,183,5.0,10.0,74,0.00,,,0.00,Wunderground v.1.15,2013-05-21 06:06:00,
2013-05-21 02:12:00,74.4,66.0,29.70,South,182,4.0,7.0,75,0.00,,,0.00,Wunderground v.1.15,2013-05-21 06:12:00,
2013-05-21 02:18:00,74.4,66.0,29.70,SSE,167,4.0,7.0,75,0.00,,,0.00,Wunderground v.1.15,2013-05-21 06:18:00,
2013-05-21 02:23:00,74.3,65.9,29.69,South,189,4.0,7.0,75,0.00,,,0.00,Wunderground v.1.15,2013-05-21 06:23:00,
2013-05-21 02:28:00,74.2,65.8,29.70,South,170,4.0,7.0,75,0.00,,,0.00,Wunderground v.1.15,2013-05-21 06:28:00,
2013-05-21 02:34:00,74.2,66.1,29.72,WNW,298,3.0,7.0,76,0.00,,,0.00,Wunderground v.1.15,2013-05-21 06:34:00,
2013-05-21 02:39:00,72.4,61.7,29.73,West,281,4.0,7.0,69,0.00,,,0.00,Wunderground v.1.15,2013-05-21 06:39:00,
2013-05-21 02:44:00,70.9,60.6,29.72,SSW,196,4.0,9.0,70,0.00,,,0.00,Wunderground v.1.15,2013-05-21 06:44:00,
2013-05-21 02:50:00,69.9,60.5,29.72,NW,325,3.0,3.0,72,0.00,,,0.00,Wunderground v.1.15,2013-05-21 06:50:00,
2013-05-21 02:56:00,69.4,60.4,29.71,NW,305,1.0,7.0,73,0.00,,,0.00,Wunderground v.1.15,2013-05-21 06:56:00,
2013-05-21 03:01:00,68.9,60.3,29.71,NW,312,2.0,3.0,74,0.00,,,0.00,Wunderground v.1.15,2013-05-21 07:01:00,
2013-05-21 03:06:00,68.5,60.3,29.71,WNW,288,2.0,8.0,75,0.00,,,0.00,Wunderground v.1.15,2013-05-21 07:06:00,
2013-05-21 03:12:00,68.0,60.2,29.71,NW,323,1.0,2.0,76,0.00,,,0.00,Wunderground v.1.15,2013-05-21 07:12:00,
2013-05-21 03:18:00,67.7,59.9,29.70,WNW,295,1.0,3.0,76,0.00,,,0.00,Wunderground v.1.15,2013-05-21 07:18:00,
2013-05-21 03:23:00,67.5,60.0,29.71,WNW,291,2.0,2.0,77,0.00,,,0.00,Wunderground v.1.15,2013-05-21 07:23:00,
2013-05-21 03:29:00,67.1,60.4,29.72,ESE,112,1.0,3.0,79,0.00,,,0.00,Wunderground v.1.15,2013-05-21 07:29:00,
2013-05-21 03:34:00,67.0,60.6,29.73,ENE,60,2.0,11.0,80,0.00,,,0.00,Wunderground v.1.15,2013-05-21 07:34:00,
2013-05-21 03:40:00,66.5,61.2,29.71,NW,307,1.0,11.0,83,0.13,,,0.02,Wunderground v.1.15,2013-05-21 07:40:00,
2013-05-21 04:01:00,63.8,60.8,29.73,SSE,158,3.0,3.0,90,0.71,,,0.41,Wunderground v.1.15,2013-05-21 08:01:00,
2013-05-21 04:07:00,63.4,60.7,29.73,SE,138,1.0,3.0,91,0.21,,,0.44,Wunderground v.1.15,2013-05-21 08:07:00,
2013-05-21 04:13:00,63.2,60.5,29.72,ESE,114,1.0,1.0,91,0.10,,,0.45,Wunderground v.1.15,2013-05-21 08:13:00,
2013-05-21 04:19:00,63.1,60.7,29.71,SE,135,1.0,3.0,92,0.08,,,0.45,Wunderground v.1.15,2013-05-21 08:19:00,
2013-05-21 04:24:00,63.1,61.0,29.71,SSE,147,2.0,3.0,93,0.06,,,0.46,Wunderground v.1.15,2013-05-21 08:24:00,
2013-05-21 04:30:00,63.1,61.0,29.71,ESE,118,2.0,3.0,93,0.07,,,0.47,Wunderground v.1.15,2013-05-21 08:30:00,
2013-05-21 04:36:00,63.1,61.0,29.71,ESE,105,2.0,3.0,93,0.11,,,0.48,Wunderground v.1.15,2013-05-21 08:36:00,
2013-05-21 04:42:00,62.9,60.8,29.70,East,101,3.0,3.0,93,0.25,,,0.50,Wunderground v.1.15,2013-05-21 08:42:00,
2013-05-21 04:47:00,62.9,60.8,29.69,East,92,3.0,7.0,93,0.21,,,0.52,Wunderground v.1.15,2013-05-21 08:47:00,
2013-05-21 04:53:00,62.9,61.1,29.67,NNE,19,3.0,5.0,94,0.17,,,0.53,Wunderground v.1.15,2013-05-21 08:53:00,
2013-05-21 04:58:00,62.9,61.1,29.67,SE,126,3.0,5.0,94,0.13,,,0.54,Wunderground v.1.15,2013-05-21 08:58:00,
2013-05-21 05:04:00,63.0,61.2,29.68,ENE,68,4.0,6.0,94,0.06,,,0.54,Wunderground v.1.15,2013-05-21 09:04:00,
2013-05-21 05:10:00,62.9,61.1,29.67,ENE,60,4.0,4.0,94,0.04,,,0.54,Wunderground v.1.15,2013-05-21 09:10:00,
2013-05-21 05:15:00,62.9,61.1,29.67,ESE,111,5.0,5.0,94,0.00,,,0.54,Wunderground v.1.15,2013-05-21 09:15:00,
2013-05-21 05:20:00,62.8,61.0,29.66,East,101,4.0,5.0,94,0.00,,,0.54,Wunderground v.1.15,2013-05-21 09:20:00,
2013-05-21 05:25:00,62.8,61.0,29.66,SE,136,3.0,5.0,94,0.00,,,0.54,Wunderground v.1.15,2013-05-21 09:25:00,
2013-05-21 05:31:00,62.9,61.1,29.67,SSE,168,3.0,6.0,94,0.00,,,0.54,Wunderground v.1.15,2013-05-21 09:31:00,
2013-05-21 05:36:00,62.9,61.1,29.67,ESE,121,3.0,6.0,94,0.00,,,0.54,Wunderground v.1.15,2013-05-21 09:36:00,
2013-05-21 05:42:00,63.0,61.2,29.66,ESE,115,3.0,6.0,94,0.00,,,0.54,Wunderground v.1.15,2013-05-21 09:42:00,
2013-05-21 05:47:00,63.0,61.2,29.68,SSE,159,4.0,7.0,94,0.00,,,0.54,Wunderground v.1.15,2013-05-21 09:47:00,
2013-05-21 05:53:00,62.9,61.1,29.70,South,182,4.0,6.0,94,0.00,,,0.54,Wunderground v.1.15,2013-05-21 09:53:00,
2013-05-21 05:58:00,62.8,61.0,29.71,SSE,148,3.0,6.0,94,0.00,,,0.54,Wunderground v.1.15,2013-05-21 09:58:00,
2013-05-21 06:03:00,62.9,61.1,29.70,SSE,150,3.0,6.0,94,0.00,,,0.54,Wunderground v.1.15,2013-05-21 10:03:00,
2013-05-21 06:08:00,63.0,61.2,29.72,SE,129,4.0,6.0,94,0.00,,,0.54,Wunderground v.1.15,2013-05-21 10:08:00,
2013-05-21 06:14:00,63.0,61.2,29.71,SSE,148,5.0,7.0,94,0.00,,,0.54,Wunderground v.1.15,2013-05-21 10:14:00,
2013-05-21 06:19:00,63.1,61.3,29.71,SE,136,6.0,8.0,94,0.00,,,0.54,Wunderground v.1.15,2013-05-21 10:19:00,
2013-05-21 06:24:00,63.1,61.3,29.70,South,189,7.0,8.0,94,0.00,,,0.54,Wunderground v.1.15,2013-05-21 10:24:00,
2013-05-21 06:29:00,63.1,61.3,29.67,SE,135,6.0,11.0,94,0.00,,,0.54,Wunderground v.1.15,2013-05-21 10:29:00,
2013-05-21 06:34:00,63.1,61.0,29.67,East,98,5.0,10.0,93,0.00,,,0.54,Wunderground v.1.15,2013-05-21 10:34:00,
2013-05-21 06:40:00,63.1,61.3,29.67,SSE,153,4.0,10.0,94,0.00,,,0.54,Wunderground v.1.15,2013-05-21 10:40:00,
2013-05-21 06:45:00,63.1,61.3,29.67,SE,144,4.0,10.0,94,0.00,,,0.54,Wunderground v.1.15,2013-05-21 10:45:00,
2013-05-21 06:50:00,63.1,61.0,29.67,SSE,158,2.0,10.0,93,0.00,,,0.54,Wunderground v.1.15,2013-05-21 10:50:00,
2013-05-21 06:56:00,63.0,60.9,29.67,SSE,167,2.0,10.0,93,0.00,,,0.54,Wunderground v.1.15,2013-05-21 10:56:00,
2013-05-21 07:02:00,63.0,61.2,29.68,South,187,2.0,3.0,94,0.00,,,0.54,Wunderground v.1.15,2013-05-21 11:02:00,
2013-05-21 07:08:00,63.0,61.2,29.68,SSE,159,2.0,5.0,94,0.00,,,0.54,Wunderground v.1.15,2013-05-21 11:08:00,
2013-05-21 07:14:00,63.0,61.2,29.69,SSE,168,2.0,4.0,94,0.00,,,0.54,Wunderground v.1.15,2013-05-21 11:14:00,
2013-05-21 07:20:00,63.0,61.2,29.69,SSE,154,2.0,7.0,94,0.00,,,0.54,Wunderground v.1.15,2013-05-21 11:20:00,
2013-05-21 07:25:00,63.1,61.3,29.69,South,185,3.0,7.0,94,0.00,,,0.54,Wunderground v.1.15,2013-05-21 11:25:00,
2013-05-21 07:30:00,63.3,61.5,29.69,South,173,3.0,3.0,94,0.00,,,0.54,Wunderground v.1.15,2013-05-21 11:30:00,
2013-05-21 07:35:00,63.4,61.6,29.69,SSE,160,4.0,16.0,94,0.00,,,0.54,Wunderground v.1.15,2013-05-21 11:35:00,
2013-05-21 07:41:00,63.7,61.9,29.70,SSW,202,3.0,16.0,94,0.00,,,0.54,Wunderground v.1.15,2013-05-21 11:41:00,
2013-05-21 07:46:00,64.0,62.2,29.70,SSE,168,3.0,16.0,94,0.00,,,0.54,Wunderground v.1.15,2013-05-21 11:46:00,
2013-05-21 07:51:00,64.1,62.3,29.70,SSW,207,3.0,16.0,94,0.00,,,0.54,Wunderground v.1.15,2013-05-21 11:51:00,
2013-05-21 07:57:00,64.3,62.2,29.70,SSW,207,4.0,16.0,93,0.00,,,0.54,Wunderground v.1.15,2013-05-21 11:57:00,
2013-05-21 08:02:00,64.4,62.3,29.70,SSW,195,4.0,7.0,93,0.00,,,0.54,Wunderground v.1.15,2013-05-21 12:02:00,
2013-05-21 08:07:00,64.6,62.5,29.70,SE,142,4.0,7.0,93,0.00,,,0.54,Wunderground v.1.15,2013-05-21 12:07:00,
2013-05-21 08:13:00,64.8,62.4,29.70,SSE,163,4.0,7.0,92,0.00,,,0.54,Wunderground v.1.15,2013-05-21 12:13:00,
2013-05-21 08:19:00,65.2,62.5,29.70,South,184,5.0,11.0,91,0.00,,,0.54,Wunderground v.1.15,2013-05-21 12:19:00,
2013-05-21 08:25:00,65.6,62.9,29.70,SSE,147,5.0,5.0,91,0.00,,,0.54,Wunderground v.1.15,2013-05-21 12:25:00,
2013-05-21 08:30:00,66.0,62.7,29.70,SSE,163,5.0,10.0,89,0.00,,,0.54,Wunderground v.1.15,2013-05-21 12:30:00,
2013-05-21 08:36:00,66.2,62.9,29.70,SSW,192,6.0,8.0,89,0.00,,,0.54,Wunderground v.1.15,2013-05-21 12:36:00,
2013-05-21 08:42:00,66.5,62.8,29.70,SSW,197,6.0,8.0,88,0.00,,,0.54,Wunderground v.1.15,2013-05-21 12:42:00,
2013-05-21 08:48:00,66.9,63.2,29.70,SSE,162,6.0,8.0,88,0.00,,,0.54,Wunderground v.1.15,2013-05-21 12:48:00,
2013-05-21 08:54:00,67.0,62.7,29.71,South,173,5.0,7.0,86,0.00,,,0.54,Wunderground v.1.15,2013-05-21 12:54:00,
2013-05-21 09:00:00,66.7,62.0,29.71,SSE,153,6.0,6.0,85,0.00,,,0.54,Wunderground v.1.15,2013-05-21 13:00:00,
2013-05-21 09:06:00,66.7,62.4,29.70,SE,132,5.0,6.0,86,0.00,,,0.54,Wunderground v.1.15,2013-05-21 13:06:00,
2013-05-21 09:11:00,66.7,62.0,29.70,SE,138,5.0,7.0,85,0.00,,,0.54,Wunderground v.1.15,2013-05-21 13:11:00,
2013-05-21 09:17:00,66.8,62.1,29.70,South,174,5.0,10.0,85,0.00,,,0.54,Wunderground v.1.15,2013-05-21 13:17:00,
2013-05-21 09:23:00,66.8,61.8,29.71,SSE,161,4.0,4.0,84,0.00,,,0.54,Wunderground v.1.15,2013-05-21 13:23:00,
2013-05-21 09:29:00,66.9,62.2,29.71,SSE,149,4.0,7.0,85,0.00,,,0.54,Wunderground v.1.15,2013-05-21 13:29:00,
2013-05-21 09:35:00,66.9,62.2,29.72,SSW,206,4.0,13.0,85,0.00,,,0.54,Wunderground v.1.15,2013-05-21 13:35:00,
2013-05-21 09:40:00,66.8,62.1,29.71,SSW,206,4.0,13.0,85,0.00,,,0.54,Wunderground v.1.15,2013-05-21 13:40:00,
2013-05-21 09:46:00,66.8,62.1,29.72,SE,138,5.0,13.0,85,0.00,,,0.54,Wunderground v.1.15,2013-05-21 13:46:00,
2013-05-21 09:51:00,67.0,62.3,29.71,SSE,168,5.0,13.0,85,0.00,,,0.54,Wunderground v.1.15,2013-05-21 13:51:00,
2013-05-21 09:57:00,67.1,62.4,29.71,SSE,167,4.0,13.0,85,0.00,,,0.54,Wunderground v.1.15,2013-05-21 13:57:00,
2013-05-21 10:03:00,67.3,62.6,29.71,WSW,257,4.0,6.0,85,0.00,,,0.54,Wunderground v.1.15,2013-05-21 14:03:00,
2013-05-21 10:09:00,67.6,62.9,29.71,SE,142,4.0,6.0,85,0.00,,,0.54,Wunderground v.1.15,2013-05-21 14:09:00,
2013-05-21 10:14:00,67.9,62.5,29.71,WSW,238,5.0,5.0,83,0.00,,,0.54,Wunderground v.1.15,2013-05-21 14:14:00,
2013-05-21 10:19:00,68.3,62.9,29.71,SSW,207,5.0,7.0,83,0.00,,,0.54,Wunderground v.1.15,2013-05-21 14:19:00,
2013-05-21 10:25:00,68.5,62.8,29.71,South,180,4.0,7.0,82,0.00,,,0.54,Wunderground v.1.15,2013-05-21 14:25:00,
2013-05-21 10:31:00,69.1,63.4,29.71,ESE,115,4.0,14.0,82,0.00,,,0.54,Wunderground v.1.15,2013-05-21 14:31:00,
2013-05-21 10:37:00,69.8,63.7,29.71,South,169,4.0,14.0,81,0.00,,,0.54,Wunderground v.1.15,2013-05-21 14:37:00,
2013-05-21 10:43:00,70.4,64.3,29.71,SSE,147,5.0,14.0,81,0.00,,,0.54,Wunderground v.1.15,2013-05-21 14:43:00,
2013-05-21 10:49:00,70.9,64.1,29.71,ESE,119,5.0,14.0,79,0.00,,,0.54,Wunderground v.1.15,2013-05-21 14:49:00,
2013-05-21 10:54:00,71.5,63.9,29.71,SSW,198,5.0,14.0,77,0.00,,,0.54,Wunderground v.1.15,2013-05-21 14:54:00,
2013-05-21 11:00:00,71.8,64.6,29.71,SE,129,5.0,8.0,78,0.00,,,0.54,Wunderground v.1.15,2013-05-21 15:00:00,
2013-05-21 11:06:00,72.2,64.6,29.70,South,180,5.0,8.0,77,0.00,,,0.54,Wunderground v.1.15,2013-05-21 15:06:00,
2013-05-21 11:12:00,72.7,64.3,29.70,SE,132,4.0,5.0,75,0.00,,,0.54,Wunderground v.1.15,2013-05-21 15:12:00,
2013-05-21 11:18:00,73.2,64.4,29.70,South,186,4.0,6.0,74,0.00,,,0.54,Wunderground v.1.15,2013-05-21 15:18:00,
2013-05-21 11:24:00,72.5,62.6,29.71,South,188,5.0,7.0,71,0.00,,,0.54,Wunderground v.1.15,2013-05-21 15:24:00,
2013-05-21 11:29:00,72.0,62.5,29.71,SE,141,6.0,13.0,72,0.00,,,0.54,Wunderground v.1.15,2013-05-21 15:29:00,
2013-05-21 11:35:00,72.4,63.6,29.70,SE,142,6.0,11.0,74,0.00,,,0.54,Wunderground v.1.15,2013-05-21 15:35:00,
2013-05-21 11:40:00,73.0,63.0,29.70,South,190,5.0,11.0,71,0.00,,,0.54,Wunderground v.1.15,2013-05-21 15:40:00,
2013-05-21 11:46:00,73.2,63.6,29.71,SSE,154,5.0,11.0,72,0.00,,,0.54,Wunderground v.1.15,2013-05-21 15:46:00,
2013-05-21 11:51:00,73.1,63.5,29.70,South,171,6.0,11.0,72,0.00,,,0.54,Wunderground v.1.15,2013-05-21 15:51:00,
2013-05-21 11:56:00,73.5,64.3,29.70,South,188,7.0,11.0,73,0.00,,,0.54,Wunderground v.1.15,2013-05-21 15:56:00,
2013-05-21 12:02:00,73.9,64.3,29.70,SSE,163,7.0,8.0,72,0.00,,,0.54,Wunderground v.1.15,2013-05-21 16:02:00,
2013-05-21 12:08:00,73.8,62.6,29.69,South,173,7.0,11.0,68,0.00,,,0.54,Wunderground v.1.15,2013-05-21 16:08:00,
2013-05-21 12:13:00,73.7,62.9,29.70,South,178,6.0,9.0,69,0.00,,,0.54,Wunderground v.1.15,2013-05-21 16:13:00,
2013-05-21 12:19:00,73.5,63.5,29.69,SW,216,5.0,9.0,71,0.00,,,0.54,Wunderground v.1.15,2013-05-21 16:19:00,
2013-05-21 12:24:00,73.7,63.7,29.69,East,99,5.0,7.0,71,0.00,,,0.54,Wunderground v.1.15,2013-05-21 16:24:00,
2013-05-21 12:30:00,73.8,63.4,29.69,ESE,117,5.0,5.0,70,0.00,,,0.54,Wunderground v.1.15,2013-05-21 16:30:00,
2013-05-21 12:36:00,74.2,63.8,29.70,SSE,161,5.0,15.0,70,0.00,,,0.54,Wunderground v.1.15,2013-05-21 16:36:00,
2013-05-21 12:42:00,74.3,64.3,29.69,SSW,213,5.0,15.0,71,0.00,,,0.54,Wunderground v.1.15,2013-05-21 16:42:00,
2013-05-21 12:47:00,74.4,63.6,29.69,SSE,166,5.0,15.0,69,0.00,,,0.54,Wunderground v.1.15,2013-05-21 16:47:00,
2013-05-21 12:53:00,74.9,64.5,29.69,SSW,195,5.0,15.0,70,0.00,,,0.54,Wunderground v.1.15,2013-05-21 16:53:00,
2013-05-21 12:59:00,75.2,65.1,29.69,South,190,4.0,15.0,71,0.00,,,0.54,Wunderground v.1.15,2013-05-21 16:59:00,
2013-05-21 13:04:00,75.5,64.6,29.69,SSE,152,5.0,10.0,69,0.00,,,0.54,Wunderground v.1.15,2013-05-21 17:04:00,
2013-05-21 13:10:00,76.0,64.2,29.69,South,172,5.0,6.0,67,0.00,,,0.54,Wunderground v.1.15,2013-05-21 17:10:00,
2013-05-21 13:16:00,75.8,63.2,29.70,South,177,6.0,10.0,65,0.00,,,0.54,Wunderground v.1.15,2013-05-21 17:16:00,
2013-05-21 13:22:00,75.3,64.0,29.69,South,178,6.0,8.0,68,0.00,,,0.54,Wunderground v.1.15,2013-05-21 17:22:00,
2013-05-21 13:27:00,74.8,63.5,29.70,South,187,6.0,9.0,68,0.00,,,0.54,Wunderground v.1.15,2013-05-21 17:27:00,
2013-05-21 13:32:00,74.4,64.0,29.69,SE,131,6.0,15.0,70,0.00,,,0.54,Wunderground v.1.15,2013-05-21 17:32:00,
2013-05-21 13:38:00,74.3,64.7,29.70,South,173,5.0,15.0,72,0.00,,,0.54,Wunderground v.1.15,2013-05-21 17:38:00,
2013-05-21 13:43:00,74.7,64.7,29.69,SE,129,4.0,15.0,71,0.00,,,0.54,Wunderground v.1.15,2013-05-21 17:43:00,
2013-05-21 13:48:00,75.3,64.8,29.69,SE,130,5.0,15.0,70,0.00,,,0.54,Wunderground v.1.15,2013-05-21 17:48:00,
2013-05-21 13:54:00,75.5,64.6,29.69,South,189,6.0,15.0,69,0.00,,,0.54,Wunderground v.1.15,2013-05-21 17:54:00,
2013-05-21 14:01:00,76.0,65.5,29.69,South,189,4.0,7.0,70,0.00,,,0.54,Wunderground v.1.15,2013-05-21 18:01:00,
2013-05-21 14:06:00,76.1,66.0,29.69,SSE,160,4.0,7.0,71,0.00,,,0.54,Wunderground v.1.15,2013-05-21 18:06:00,
2013-05-21 14:12:00,76.1,66.0,29.69,South,183,4.0,6.0,71,0.00,,,0.54,Wunderground v.1.15,2013-05-21 18:12:00,
2013-05-21 14:17:00,76.5,65.6,29.69,SSW,196,3.0,6.0,69,0.00,,,0.54,Wunderground v.1.15,2013-05-21 18:17:00,
2013-05-21 14:22:00,76.6,66.1,29.68,East,88,4.0,4.0,70,0.00,,,0.54,Wunderground v.1.15,2013-05-21 18:22:00,
2013-05-21 14:27:00,76.2,65.3,29.68,SSW,193,4.0,7.0,69,0.00,,,0.54,Wunderground v.1.15,2013-05-21 18:27:00,
2013-05-21 14:33:00,76.0,65.9,29.68,South,170,4.0,14.0,71,0.00,,,0.54,Wunderground v.1.15,2013-05-21 18:33:00,
2013-05-21 14:38:00,76.4,67.5,29.68,SSE,148,2.0,14.0,74,0.00,,,0.54,Wunderground v.1.15,2013-05-21 18:38:00,
2013-05-21 14:44:00,77.0,66.9,29.68,SSE,158,2.0,14.0,71,0.00,,,0.54,Wunderground v.1.15,2013-05-21 18:44:00,
2013-05-21 14:50:00,77.3,65.5,29.69,SW,214,4.0,14.0,67,0.00,,,0.54,Wunderground v.1.15,2013-05-21 18:50:00,
2013-05-21 14:56:00,77.9,66.9,29.69,South,181,4.0,14.0,69,0.00,,,0.54,Wunderground v.1.15,2013-05-21 18:56:00,
2013-05-21 15:02:00,78.1,65.8,29.68,SE,132,4.0,8.0,66,0.00,,,0.54,Wunderground v.1.15,2013-05-21 19:02:00,
2013-05-21 15:08:00,78.7,67.7,29.68,SSW,194,3.0,8.0,69,0.00,,,0.54,Wunderground v.1.15,2013-05-21 19:08:00,
2013-05-21 15:14:00,78.9,67.0,29.69,ESE,121,2.0,5.0,67,0.00,,,0.54,Wunderground v.1.15,2013-05-21 19:14:00,
2013-05-21 15:20:00,79.3,67.0,29.69,SE,134,3.0,5.0,66,0.00,,,0.54,Wunderground v.1.15,2013-05-21 19:20:00,
2013-05-21 15:25:00,79.4,66.2,29.68,SE,146,4.0,11.0,64,0.00,,,0.54,Wunderground v.1.15,2013-05-21 19:25:00,
2013-05-21 15:31:00,79.6,66.3,29.68,SE,138,5.0,11.0,64,0.00,,,0.54,Wunderground v.1.15,2013-05-21 19:31:00,
2013-05-21 15:36:00,79.7,66.9,29.68,SSE,161,5.0,11.0,65,0.00,,,0.54,Wunderground v.1.15,2013-05-21 19:36:00,
2013-05-21 15:42:00,79.6,66.3,29.69,SSE,163,4.0,11.0,64,0.00,,,0.54,Wunderground v.1.15,2013-05-21 19:42:00,
2013-05-21 15:48:00,78.9,65.7,29.68,SSE,156,5.0,11.0,64,0.00,,,0.54,Wunderground v.1.15,2013-05-21 19:48:00,
2013-05-21 15:53:00,78.7,66.4,29.68,East,99,4.0,11.0,66,0.00,,,0.54,Wunderground v.1.15,2013-05-21 19:53:00,
2013-05-21 15:59:00,78.8,65.6,29.68,WSW,257,4.0,11.0,64,0.00,,,0.54,Wunderground v.1.15,2013-05-21 19:59:00,
2013-05-21 16:04:00,79.4,66.2,29.68,South,171,4.0,6.0,64,0.00,,,0.54,Wunderground v.1.15,2013-05-21 20:04:00,
2013-05-21 16:10:00,79.8,65.6,29.68,South,174,4.0,5.0,62,0.00,,,0.54,Wunderground v.1.15,2013-05-21 20:10:00,
2013-05-21 16:15:00,79.9,66.2,29.67,South,173,5.0,6.0,63,0.00,,,0.54,Wunderground v.1.15,2013-05-21 20:15:00,
2013-05-21 16:21:00,79.9,65.7,29.67,SSW,198,5.0,5.0,62,0.00,,,0.54,Wunderground v.1.15,2013-05-21 20:21:00,
2013-05-21 16:26:00,80.0,65.3,29.67,ESE,104,6.0,7.0,61,0.00,,,0.54,Wunderground v.1.15,2013-05-21 20:26:00,
2013-05-21 16:32:00,79.8,67.0,29.67,SE,134,5.0,13.0,65,0.00,,,0.54,Wunderground v.1.15,2013-05-21 20:32:00,
2013-05-21 16:38:00,79.9,66.2,29.67,South,191,5.0,13.0,63,0.00,,,0.54,Wunderground v.1.15,2013-05-21 20:38:00,
2013-05-21 16:43:00,80.0,66.7,29.67,SSE,152,5.0,13.0,64,0.00,,,0.54,Wunderground v.1.15,2013-05-21 20:43:00,
2013-05-21 16:49:00,80.5,65.3,29.67,South,179,4.0,13.0,60,0.00,,,0.54,Wunderground v.1.15,2013-05-21 20:49:00,
2013-05-21 16:55:00,80.9,66.7,29.67,SSE,155,4.0,13.0,62,0.00,,,0.54,Wunderground v.1.15,2013-05-21 20:55:00,
2013-05-21 17:01:00,81.7,68.3,29.67,South,169,4.0,5.0,64,0.00,,,0.54,Wunderground v.1.15,2013-05-21 21:01:00,
2013-05-21 17:06:00,81.9,66.2,29.67,SE,135,4.0,6.0,59,0.00,,,0.54,Wunderground v.1.15,2013-05-21 21:06:00,
2013-05-21 17:11:00,81.5,66.3,29.66,SSE,159,4.0,4.0,60,0.00,,,0.54,Wunderground v.1.15,2013-05-21 21:11:00,
2013-05-21 17:16:00,81.5,66.3,29.66,SSE,153,4.0,4.0,60,0.00,,,0.54,Wunderground v.1.15,2013-05-21 21:16:00,
2013-05-21 17:22:00,81.9,66.6,29.66,South,173,3.0,5.0,60,0.00,,,0.54,Wunderground v.1.15,2013-05-21 21:22:00,
2013-05-21 17:27:00,81.3,66.6,29.66,South,175,4.0,10.0,61,0.00,,,0.54,Wunderground v.1.15,2013-05-21 21:27:00,
2013-05-21 17:33:00,81.4,66.2,29.66,South,171,4.0,13.0,60,0.00,,,0.54,Wunderground v.1.15,2013-05-21 21:33:00,
2013-05-21 17:38:00,81.4,66.7,29.66,SSE,155,4.0,13.0,61,0.00,,,0.54,Wunderground v.1.15,2013-05-21 21:38:00,
2013-05-21 17:43:00,81.5,66.8,29.66,SSE,158,3.0,13.0,61,0.00,,,0.54,Wunderground v.1.15,2013-05-21 21:43:00,
2013-05-21 17:49:00,81.7,66.0,29.66,SW,236,3.0,13.0,59,0.00,,,0.54,Wunderground v.1.15,2013-05-21 21:49:00,
2013-05-21 17:55:00,81.5,65.3,29.66,SE,128,4.0,13.0,58,0.00,,,0.54,Wunderground v.1.15,2013-05-21 21:55:00,
2013-05-21 18:00:00,81.7,65.0,29.66,South,173,4.0,7.0,57,0.00,,,0.54,Wunderground v.1.15,2013-05-21 22:00:00,
2013-05-21 18:06:00,81.6,65.9,29.66,South,178,4.0,7.0,59,0.00,,,0.54,Wunderground v.1.15,2013-05-21 22:06:00,
2013-05-21 18:12:00,81.7,66.9,29.66,SSE,158,3.0,6.0,61,0.00,,,0.54,Wunderground v.1.15,2013-05-21 22:12:00,
2013-05-21 18:18:00,81.8,65.6,29.66,WSW,256,3.0,6.0,58,0.00,,,0.54,Wunderground v.1.15,2013-05-21 22:18:00,
2013-05-21 18:23:00,81.4,64.2,29.66,SE,144,3.0,6.0,56,0.00,,,0.54,Wunderground v.1.15,2013-05-21 22:23:00,
2013-05-21 18:29:00,81.3,67.0,29.66,East,93,3.0,7.0,62,0.00,,,0.54,Wunderground v.1.15,2013-05-21 22:29:00,
2013-05-21 18:34:00,81.4,65.7,29.66,South,178,3.0,12.0,59,0.00,,,0.54,Wunderground v.1.15,2013-05-21 22:34:00,
2013-05-21 18:40:00,80.9,66.2,29.66,ESE,104,4.0,12.0,61,0.00,,,0.54,Wunderground v.1.15,2013-05-21 22:40:00,
2013-05-21 18:45:00,80.7,65.5,29.65,SSW,208,4.0,12.0,60,0.00,,,0.54,Wunderground v.1.15,2013-05-21 22:45:00,
2013-05-21 18:51:00,80.7,66.9,29.65,ESE,118,4.0,12.0,63,0.00,,,0.54,Wunderground v.1.15,2013-05-21 22:51:00,
2013-05-21 18:57:00,80.6,64.9,29.65,ESE,119,4.0,12.0,59,0.00,,,0.54,Wunderground v.1.15,2013-05-21 22:57:00,
2013-05-21 19:02:00,80.6,65.9,29.65,SE,138,3.0,4.0,61,0.00,,,0.54,Wunderground v.1.15,2013-05-21 23:02:00,
2013-05-21 19:07:00,80.5,66.3,29.65,SSW,198,3.0,5.0,62,0.00,,,0.54,Wunderground v.1.15,2013-05-21 23:07:00,
2013-05-21 19:13:00,80.4,65.7,29.65,SE,138,3.0,4.0,61,0.00,,,0.54,Wunderground v.1.15,2013-05-21 23:13:00,
2013-05-21 19:19:00,80.5,65.8,29.65,SSE,151,3.0,4.0,61,0.00,,,0.54,Wunderground v.1.15,2013-05-21 23:19:00,
2013-05-21 19:24:00,80.5,66.3,29.65,South,185,3.0,5.0,62,0.00,,,0.54,Wunderground v.1.15,2013-05-21 23:24:00,
2013-05-21 19:30:00,80.0,65.8,29.64,ESE,121,3.0,5.0,62,0.00,,,0.54,Wunderground v.1.15,2013-05-21 23:30:00,
2013-05-21 19:36:00,79.8,66.5,29.65,ESE,123,2.0,11.0,64,0.00,,,0.54,Wunderground v.1.15,2013-05-21 23:36:00,
2013-05-21 19:41:00,79.7,66.0,29.64,SSE,150,2.0,11.0,63,0.00,,,0.54,Wunderground v.1.15,2013-05-21 23:41:00,
2013-05-21 19:46:00,79.6,66.3,29.64,SSE,153,2.0,11.0,64,0.00,,,0.54,Wunderground v.1.15,2013-05-21 23:46:00,
2013-05-21 19:52:00,79.1,65.9,29.64,SSE,163,3.0,11.0,64,0.00,,,0.54,Wunderground v.1.15,2013-05-21 23:52:00,
2013-05-21 19:57:00,78.8,66.5,29.64,SE,138,2.0,11.0,66,0.00,,,0.54,Wunderground v.1.15,2013-05-21 23:57:00,
2013-05-21 20:03:00,78.5,66.6,29.64,South,187,1.0,2.0,67,0.00,,,0.54,Wunderground v.1.15,2013-05-22 00:03:00,
2013-05-21 20:09:00,78.5,66.6,29.64,SSE,151,1.0,2.0,67,0.00,,,0.54,Wunderground v.1.15,2013-05-22 00:09:00,
2013-05-21 20:14:00,78.6,66.7,29.64,SSE,161,0.0,2.0,67,0.00,,,0.54,Wunderground v.1.15,2013-05-22 00:14:00,
2013-05-21 20:19:00,78.5,67.1,29.64,SSE,161,0.0,2.0,68,0.00,,,0.54,Wunderground v.1.15,2013-05-22 00:19:00,
2013-05-21 20:24:00,78.2,66.8,29.64,SSE,161,0.0,1.0,68,0.00,,,0.54,Wunderground v.1.15,2013-05-22 00:24:00,
2013-05-21 20:30:00,78.0,66.6,29.64,SSE,161,0.0,0.0,68,0.00,,,0.54,Wunderground v.1.15,2013-05-22 00:30:00,
2013-05-21 20:36:00,77.5,66.9,29.64,South,190,0.0,10.0,70,0.00,,,0.54,Wunderground v.1.15,2013-05-22 00:36:00,
2013-05-21 20:41:00,77.0,66.9,29.64,South,190,0.0,10.0,71,0.00,,,0.54,Wunderground v.1.15,2013-05-22 00:41:00,
2013-05-21 20:47:00,76.4,66.7,29.65,South,190,0.0,10.0,72,0.00,,,0.54,Wunderground v.1.15,2013-05-22 00:47:00,
2013-05-21 20:52:00,75.8,66.5,29.65,South,190,0.0,10.0,73,0.00,,,0.54,Wunderground v.1.15,2013-05-22 00:52:00,
2013-05-21 20:58:00,75.3,66.4,29.65,South,190,0.0,10.0,74,0.00,,,0.54,Wunderground v.1.15,2013-05-22 00:58:00,
2013-05-21 21:03:00,74.7,65.9,29.65,South,190,0.0,0.0,74,0.00,,,0.54,Wunderground v.1.15,2013-05-22 01:03:00,
2013-05-21 21:08:00,74.2,65.8,29.65,South,190,0.0,0.0,75,0.00,,,0.54,Wunderground v.1.15,2013-05-22 01:08:00,
2013-05-21 21:14:00,73.7,65.3,29.65,South,190,0.0,0.0,75,0.00,,,0.54,Wunderground v.1.15,2013-05-22 01:14:00,
2013-05-21 21:19:00,73.3,65.3,29.65,South,190,0.0,0.0,76,0.00,,,0.54,Wunderground v.1.15,2013-05-22 01:19:00,
2013-05-21 21:25:00,72.8,65.5,29.65,South,190,0.0,1.0,78,0.00,,,0.54,Wunderground v.1.15,2013-05-22 01:25:00,
2013-05-21 21:31:00,72.4,64.8,29.65,South,190,0.0,2.0,77,0.00,,,0.54,Wunderground v.1.15,2013-05-22 01:31:00,
2013-05-21 21:36:00,72.1,64.9,29.66,South,190,0.0,2.0,78,0.00,,,0.54,Wunderground v.1.15,2013-05-22 01:36:00,
2013-05-21 21:42:00,71.8,64.6,29.66,South,190,0.0,2.0,78,0.00,,,0.54,Wunderground v.1.15,2013-05-22 01:42:00,
2013-05-21 21:48:00,71.4,64.5,29.66,South,190,0.0,2.0,79,0.00,,,0.54,Wunderground v.1.15,2013-05-22 01:48:00,
2013-05-21 21:54:00,71.0,64.5,29.66,South,190,0.0,2.0,80,0.00,,,0.54,Wunderground v.1.15,2013-05-22 01:54:00,
2013-05-21 21:59:00,70.6,64.5,29.66,South,190,0.0,2.0,81,0.00,,,0.54,Wunderground v.1.15,2013-05-22 01:59:00,
2013-05-21 22:04:00,70.3,64.2,29.66,South,190,0.0,0.0,81,0.00,,,0.54,Wunderground v.1.15,2013-05-22 02:04:00,
2013-05-21 22:10:00,70.1,64.0,29.66,South,190,0.0,0.0,81,0.00,,,0.54,Wunderground v.1.15,2013-05-22 02:10:00,
2013-05-21 22:15:00,69.9,64.2,29.67,South,190,0.0,0.0,82,0.00,,,0.54,Wunderground v.1.15,2013-05-22 02:15:00,
2013-05-21 22:21:00,69.7,64.6,29.67,South,190,0.0,0.0,84,0.00,,,0.54,Wunderground v.1.15,2013-05-22 02:21:00,
2013-05-21 22:27:00,69.4,64.4,29.67,South,190,0.0,0.0,84,0.00,,,0.54,Wunderground v.1.15,2013-05-22 02:27:00,
2013-05-21 22:33:00,69.0,63.6,29.67,South,190,0.0,1.0,83,0.00,,,0.54,Wunderground v.1.15,2013-05-22 02:33:00,
2013-05-21 22:39:00,68.6,63.6,29.67,South,190,0.0,1.0,84,0.00,,,0.54,Wunderground v.1.15,2013-05-22 02:39:00,
2013-05-21 22:44:00,68.1,63.1,29.68,South,190,0.0,1.0,84,0.00,,,0.54,Wunderground v.1.15,2013-05-22 02:44:00,
2013-05-21 22:50:00,67.7,63.4,29.68,South,190,0.0,1.0,86,0.00,,,0.54,Wunderground v.1.15,2013-05-22 02:50:00,
2013-05-21 22:55:00,67.6,64.2,29.68,South,190,0.0,1.0,89,0.00,,,0.54,Wunderground v.1.15,2013-05-22 02:55:00,
2013-05-21 23:01:00,67.4,64.0,29.68,South,190,0.0,0.0,89,0.00,,,0.54,Wunderground v.1.15,2013-05-22 03:01:00,
2013-05-21 23:06:00,67.3,63.9,29.68,South,190,0.0,0.0,89,0.00,,,0.54,Wunderground v.1.15,2013-05-22 03:06:00,
2013-05-21 23:11:00,67.2,63.8,29.68,South,190,0.0,0.0,89,0.00,,,0.54,Wunderground v.1.15,2013-05-22 03:11:00,
2013-05-21 23:16:00,66.9,63.6,29.68,South,190,0.0,0.0,89,0.00,,,0.54,Wunderground v.1.15,2013-05-22 03:16:00,
2013-05-21 23:21:00,66.8,63.5,29.68,South,190,0.0,0.0,89,0.00,,,0.54,Wunderground v.1.15,2013-05-22 03:21:00,
2013-05-21 23:26:00,66.6,63.6,29.68,South,190,0.0,0.0,90,0.00,,,0.54,Wunderground v.1.15,2013-05-22 03:26:00,
2013-05-21 23:31:00,66.2,63.2,29.68,South,190,0.0,0.0,90,0.00,,,0.54,Wunderground v.1.15,2013-05-22 03:31:00,
2013-05-21 23:36:00,65.9,62.9,29.68,South,190,0.0,0.0,90,0.00,,,0.54,Wunderground v.1.15,2013-05-22 03:36:00,
2013-05-21 23:42:00,65.8,63.4,29.67,South,190,0.0,0.0,92,0.00,,,0.54,Wunderground v.1.15,2013-05-22 03:42:00,
2013-05-21 23:48:00,65.8,63.4,29.67,South,190,0.0,0.0,92,0.00,,,0.54,Wunderground v.1.15,2013-05-22 03:48:00,
2013-05-21 23:54:00,65.9,63.5,29.67,South,190,0.0,0.0,92,0.00,,,0.54,Wunderground v.1.15,2013-05-22 03:54:00,